Time;durP1;ratioP1;P1;durP2;ratioP2;P2;SDS_P1;SDS_P2;PMS_P1;PMS_P2;Temp;Humidity;BMP_temperature;BMP_pressure;BME280_temperature;BME280_humidity;BME280_pressure;Samples;Min_cycle;Max_cycle;Signal;HPM_P1;HPM_P2
2023/10/05 00:00:39;;;;;;;;;;;17.90;88.80;;;;;;4042762;29;20380;-56
2023/10/05 00:03:20;;;;;;;;;;;17.90;87.90;;;;;;4043291;29;20010;-56
2023/10/05 00:06:10;;;;;;;;;;;17.90;87.80;;;;;;4043117;29;20086;-55
2023/10/05 00:08:53;;;;;;;;;;;17.80;87.80;;;;;;4027872;29;19991;-57
2023/10/05 00:11:36;;;;;;;;;;;17.80;87.90;;;;;;4026741;29;19935;-54
2023/10/05 00:14:17;;;;;;;;;;;17.90;88.20;;;;;;4039070;29;19934;-54
2023/10/05 00:17:00;;;;;;;;;;;17.80;88.10;;;;;;4043010;29;19935;-56
2023/10/05 00:19:40;;;;;;;;;;;17.80;88.30;;;;;;4042849;29;20002;-51
2023/10/05 00:22:21;;;;;;;;;;;17.80;89.20;;;;;;4043435;29;19934;-54
2023/10/05 00:25:04;;;;;;;;;;;17.80;88.30;;;;;;4027476;29;20026;-56
2023/10/05 00:27:46;;;;;;;;;;;17.90;88.10;;;;;;4035843;29;19934;-56
2023/10/05 00:30:27;;;;;;;;;;;17.90;88.10;;;;;;4031389;29;19982;-55
2023/10/05 00:33:10;;;;;;;;;;;17.80;88.20;;;;;;4045986;29;20389;-54
2023/10/05 00:35:51;;;;;;;;;;;17.90;88.20;;;;;;4045863;29;19951;-55
2023/10/05 00:38:35;;;;;;;;;;;17.80;88.10;;;;;;4046279;29;20032;-53
2023/10/05 00:41:16;;;;;;;;;;;17.80;88.30;;;;;;4046530;29;20002;-55
2023/10/05 00:43:56;;;;;;;;;;;17.80;88.30;;;;;;4046015;29;19983;-56
2023/10/05 00:46:38;;;;;;;;;;;17.80;88.30;;;;;;4045867;29;20441;-55
2023/10/05 00:49:23;;;;;;;;;;;17.80;88.50;;;;;;4034605;29;19938;-55
2023/10/05 00:52:12;;;;;;;;;;;17.80;88.50;;;;;;4045540;29;19935;-55
2023/10/05 00:54:56;;;;;;;;;;;17.80;88.50;;;;;;4045044;29;20052;-55
2023/10/05 00:57:37;;;;;;;;;;;17.80;88.50;;;;;;4039611;29;19959;-56
2023/10/05 01:00:27;;;;;;;;;;;17.80;88.60;;;;;;4034599;29;20505;-56
2023/10/05 01:03:22;;;;;;;;;;;17.80;89.60;;;;;;4012173;29;19935;-55
2023/10/05 01:06:19;;;;;;;;;;;17.80;88.70;;;;;;4044658;29;20071;-55
2023/10/05 01:09:04;;;;;;;;;;;17.80;88.80;;;;;;4044757;29;19946;-52
2023/10/05 01:11:52;;;;;;;;;;;17.80;88.80;;;;;;4044988;29;19963;-55
2023/10/05 01:14:37;;;;;;;;;;;17.80;89.60;;;;;;4045610;29;19970;-55
2023/10/05 01:17:21;;;;;;;;;;;17.80;88.80;;;;;;4033836;29;19938;-56
2023/10/05 01:20:12;;;;;;;;;;;17.80;88.80;;;;;;4045738;29;19935;-55
2023/10/05 01:22:58;;;;;;;;;;;17.70;88.90;;;;;;4029342;29;19987;-56
2023/10/05 01:25:40;;;;;;;;;;;17.80;88.80;;;;;;4029074;29;20473;-57
2023/10/05 01:28:21;;;;;;;;;;;17.70;89.00;;;;;;4031145;29;19939;-55
2023/10/05 01:31:04;;;;;;;;;;;17.70;89.00;;;;;;4044697;29;20401;-54
2023/10/05 01:33:51;;;;;;;;;;;17.80;90.00;;;;;;4045019;29;20480;-55
2023/10/05 01:36:34;;;;;;;;;;;17.70;89.20;;;;;;4044804;29;19959;-56
2023/10/05 01:39:19;;;;;;;;;;;17.80;89.50;;;;;;4033296;29;20402;-56
2023/10/05 01:42:01;;;;;;;;;;;17.80;89.50;;;;;;4044572;29;20390;-55
2023/10/05 01:44:46;;;;;;;;;;;17.80;89.50;;;;;;4044608;29;19938;-56
2023/10/05 01:47:37;;;;;;;;;;;17.70;89.50;;;;;;4033849;29;19935;-56
2023/10/05 01:50:19;;;;;;;;;;;17.70;89.50;;;;;;4044965;29;20044;-56
2023/10/05 01:53:07;;;;;;;;;;;17.80;90.20;;;;;;4042687;29;19938;-55
2023/10/05 01:55:50;;;;;;;;;;;17.70;89.40;;;;;;4044807;29;20286;-56
2023/10/05 01:58:34;;;;;;;;;;;17.80;90.20;;;;;;4032418;29;20025;-56
2023/10/05 02:01:15;;;;;;;;;;;17.70;89.50;;;;;;4043705;29;19970;-57
2023/10/05 02:03:57;;;;;;;;;;;17.70;89.50;;;;;;4032922;29;19939;-54
2023/10/05 02:06:40;;;;;;;;;;;17.80;89.70;;;;;;4043979;29;19943;-56
2023/10/05 02:09:21;;;;;;;;;;;17.70;89.70;;;;;;4044525;29;19938;-56
2023/10/05 02:12:03;;;;;;;;;;;17.80;89.80;;;;;;4033069;29;19935;-56
2023/10/05 02:14:47;;;;;;;;;;;17.80;89.80;;;;;;4043735;29;19935;-56
2023/10/05 02:17:28;;;;;;;;;;;17.70;89.80;;;;;;4044082;29;19938;-56
2023/10/05 02:20:16;;;;;;;;;;;17.70;89.70;;;;;;4017291;29;20023;-54
2023/10/05 02:22:57;;;;;;;;;;;17.80;89.80;;;;;;4028512;29;19938;-55
2023/10/05 02:25:38;;;;;;;;;;;17.70;89.70;;;;;;4028358;29;20065;-56
2023/10/05 02:28:25;;;;;;;;;;;17.70;89.80;;;;;;4032208;29;20406;-55
2023/10/05 02:31:12;;;;;;;;;;;17.70;90.30;;;;;;4033281;29;20429;-55
2023/10/05 02:33:54;;;;;;;;;;;17.70;90.00;;;;;;4044950;29;19989;-55
2023/10/05 02:36:54;;;;;;;;;;;17.70;90.00;;;;;;4034873;29;19987;-55
2023/10/05 02:39:37;;;;;;;;;;;17.70;90.40;;;;;;4020096;29;19935;-56
2023/10/05 02:42:21;;;;;;;;;;;17.70;90.00;;;;;;4030577;29;19938;-56
2023/10/05 02:45:04;;;;;;;;;;;17.70;90.00;;;;;;4030348;29;19995;-56
2023/10/05 02:47:48;;;;;;;;;;;17.70;90.00;;;;;;4032670;29;19935;-56
2023/10/05 02:50:37;;;;;;;;;;;17.70;90.00;;;;;;4031728;29;19978;-55
2023/10/05 02:53:18;;;;;;;;;;;17.70;90.00;;;;;;4019782;29;19938;-53
2023/10/05 02:55:59;;;;;;;;;;;17.70;90.10;;;;;;4031593;29;19934;-56
2023/10/05 02:58:40;;;;;;;;;;;17.70;90.10;;;;;;4028982;29;20052;-52
2023/10/05 03:01:21;;;;;;;;;;;17.70;90.10;;;;;;4044130;29;19939;-56
2023/10/05 03:04:09;;;;;;;;;;;17.70;90.10;;;;;;4032687;29;19938;-57
2023/10/05 03:06:52;;;;;;;;;;;17.70;90.20;;;;;;4043379;29;20014;-55
2023/10/05 03:09:34;;;;;;;;;;;17.60;90.60;;;;;;4043560;29;19935;-56
2023/10/05 03:12:20;;;;;;;;;;;17.70;90.20;;;;;;4043403;29;19952;-56
2023/10/05 03:15:07;;;;;;;;;;;17.70;90.20;;;;;;4042363;29;20421;-55
2023/10/05 03:17:51;;;;;;;;;;;17.70;90.30;;;;;;4038102;29;19934;-56
2023/10/05 03:20:34;;;;;;;;;;;17.70;90.30;;;;;;4032214;29;20059;-55
2023/10/05 03:23:16;;;;;;;;;;;17.60;90.30;;;;;;4031788;29;19938;-57
2023/10/05 03:25:57;;;;;;;;;;;17.70;90.30;;;;;;4042708;29;19939;-56
2023/10/05 03:28:41;;;;;;;;;;;17.60;90.20;;;;;;4039466;29;19939;-56
2023/10/05 03:31:31;;;;;;;;;;;17.70;90.30;;;;;;4031437;29;19942;-53
2023/10/05 03:34:12;;;;;;;;;;;17.70;90.70;;;;;;4043217;29;19998;-55
2023/10/05 03:36:55;;;;;;;;;;;17.60;90.30;;;;;;4038340;29;20409;-56
2023/10/05 03:39:39;;;;;;;;;;;17.60;90.30;;;;;;4039174;29;20010;-55
2023/10/05 03:42:22;;;;;;;;;;;17.70;90.40;;;;;;4042600;29;20064;-57
2023/10/05 03:45:09;;;;;;;;;;;17.60;90.40;;;;;;4027109;29;19938;-56
2023/10/05 03:47:50;;;;;;;;;;;17.70;90.40;;;;;;4042895;29;19938;-57
2023/10/05 03:50:31;;;;;;;;;;;17.70;90.40;;;;;;4043736;29;19969;-54
2023/10/05 03:53:15;;;;;;;;;;;17.60;90.40;;;;;;4030979;29;19967;-57
2023/10/05 03:55:57;;;;;;;;;;;17.60;90.30;;;;;;4029447;29;20018;-56
2023/10/05 03:58:39;;;;;;;;;;;17.60;90.30;;;;;;4028128;29;19935;-55
2023/10/05 04:01:22;;;;;;;;;;;17.60;90.40;;;;;;4035961;29;19938;-57
2023/10/05 04:04:07;;;;;;;;;;;17.60;90.30;;;;;;4042606;29;20326;-52
2023/10/05 04:06:51;;;;;;;;;;;17.70;90.40;;;;;;4031006;29;20018;-52
2023/10/05 04:09:34;;;;;;;;;;;17.60;90.40;;;;;;4021155;29;19935;-55
2023/10/05 04:12:15;;;;;;;;;;;17.70;90.40;;;;;;4043599;29;19935;-55
2023/10/05 04:14:57;;;;;;;;;;;17.70;90.40;;;;;;4042930;29;19998;-54
2023/10/05 04:17:38;;;;;;;;;;;17.60;90.40;;;;;;4042732;29;19950;-56
2023/10/05 04:20:19;;;;;;;;;;;17.60;90.50;;;;;;4042758;29;19938;-57
2023/10/05 04:23:01;;;;;;;;;;;17.60;90.40;;;;;;4042856;29;19966;-57
2023/10/05 04:25:44;;;;;;;;;;;17.60;90.40;;;;;;4042758;29;19939;-56
2023/10/05 04:28:32;;;;;;;;;;;17.60;90.40;;;;;;4027811;29;19938;-53
2023/10/05 04:31:19;;;;;;;;;;;17.60;90.50;;;;;;4027317;29;19938;-52
2023/10/05 04:34:00;;;;;;;;;;;17.60;90.90;;;;;;4027334;29;19935;-53
2023/10/05 04:36:41;;;;;;;;;;;17.60;90.50;;;;;;4032208;29;19934;-55
2023/10/05 04:39:27;;;;;;;;;;;17.70;90.60;;;;;;4042079;29;19937;-54
2023/10/05 04:42:11;;;;;;;;;;;17.70;90.60;;;;;;4040910;29;20291;-56
2023/10/05 04:44:52;;;;;;;;;;;17.60;90.60;;;;;;4042810;29;19947;-55
2023/10/05 04:47:33;;;;;;;;;;;17.60;90.60;;;;;;4042260;29;19983;-54
2023/10/05 04:50:15;;;;;;;;;;;17.60;90.60;;;;;;4042791;29;19938;-53
2023/10/05 04:52:58;;;;;;;;;;;17.60;90.60;;;;;;4042517;29;20310;-54
2023/10/05 04:55:41;;;;;;;;;;;17.60;90.60;;;;;;4041982;29;19986;-54
2023/10/05 04:58:31;;;;;;;;;;;17.60;90.60;;;;;;4027154;29;20410;-50
2023/10/05 05:01:28;;;;;;;;;;;17.60;90.60;;;;;;4026826;29;19939;-52
2023/10/05 05:04:27;;;;;;;;;;;17.60;91.10;;;;;;4035737;29;19939;-51
2023/10/05 05:07:09;;;;;;;;;;;17.60;90.70;;;;;;4041322;29;20322;-53
2023/10/05 05:09:52;;;;;;;;;;;17.60;90.70;;;;;;4042898;29;20290;-54
2023/10/05 05:12:35;;;;;;;;;;;17.60;90.70;;;;;;4043101;29;19934;-53
2023/10/05 05:15:17;;;;;;;;;;;17.60;90.70;;;;;;4027063;29;20406;-54
2023/10/05 05:17:58;;;;;;;;;;;17.60;90.70;;;;;;4042501;29;19935;-55
2023/10/05 05:20:40;;;;;;;;;;;17.60;90.70;;;;;;4044257;29;19950;-56
2023/10/05 05:23:21;;;;;;;;;;;17.60;90.70;;;;;;4030085;29;19935;-45
2023/10/05 05:26:03;;;;;;;;;;;17.60;90.70;;;;;;4030183;29;20067;-59
2023/10/05 05:28:44;;;;;;;;;;;17.60;90.80;;;;;;4033666;29;19934;-56
2023/10/05 05:31:27;;;;;;;;;;;17.60;90.80;;;;;;4045455;29;20519;-59
2023/10/05 05:34:07;;;;;;;;;;;17.70;90.80;;;;;;4029885;29;20067;-59
2023/10/05 05:36:52;;;;;;;;;;;17.70;90.70;;;;;;4029680;29;20405;-59
2023/10/05 05:39:39;;;;;;;;;;;17.70;90.80;;;;;;4029754;29;19935;-57
2023/10/05 05:42:20;;;;;;;;;;;17.70;90.80;;;;;;4037534;29;19974;-58
2023/10/05 05:45:06;;;;;;;;;;;17.60;90.80;;;;;;4044639;29;20042;-58
2023/10/05 05:47:48;;;;;;;;;;;17.70;90.80;;;;;;4039813;29;20036;-59
2023/10/05 05:50:30;;;;;;;;;;;17.60;90.80;;;;;;4035601;29;19935;-58
2023/10/05 05:53:12;;;;;;;;;;;17.60;90.80;;;;;;4036833;29;19934;-56
2023/10/05 05:55:54;;;;;;;;;;;17.60;90.80;;;;;;4045528;29;19938;-58
2023/10/05 05:58:38;;;;;;;;;;;17.60;90.80;;;;;;4028386;29;19950;-57
2023/10/05 06:01:20;;;;;;;;;;;17.60;90.70;;;;;;4029089;29;19942;-57
2023/10/05 06:04:04;;;;;;;;;;;17.60;90.80;;;;;;4038587;29;20402;-53
2023/10/05 06:06:48;;;;;;;;;;;17.60;90.90;;;;;;4034813;29;19938;-54
2023/10/05 06:09:33;;;;;;;;;;;17.60;90.80;;;;;;4044432;29;19990;-55
2023/10/05 06:12:15;;;;;;;;;;;17.60;90.90;;;;;;4029815;29;19959;-55
2023/10/05 06:14:56;;;;;;;;;;;17.60;91.00;;;;;;4034519;29;20279;-55
2023/10/05 06:17:38;;;;;;;;;;;17.60;91.40;;;;;;4030099;29;20398;-58
2023/10/05 06:20:20;;;;;;;;;;;17.60;90.90;;;;;;4030073;29;19935;-57
2023/10/05 06:23:02;;;;;;;;;;;17.60;90.80;;;;;;4030263;29;20014;-58
2023/10/05 06:25:48;;;;;;;;;;;17.60;90.80;;;;;;4035560;29;19934;-58
2023/10/05 06:28:28;;;;;;;;;;;17.60;90.70;;;;;;4041318;29;20390;-58
2023/10/05 06:31:10;;;;;;;;;;;17.60;90.70;;;;;;4028636;29;19934;-59
2023/10/05 06:33:52;;;;;;;;;;;17.60;90.60;;;;;;4039922;29;19960;-59
2023/10/05 06:36:34;;;;;;;;;;;17.60;90.60;;;;;;4041536;29;20398;-57
2023/10/05 06:39:18;;;;;;;;;;;17.70;90.60;;;;;;4044559;29;19978;-53
2023/10/05 06:42:07;;;;;;;;;;;17.60;90.60;;;;;;4043986;29;19935;-56
2023/10/05 06:44:48;;;;;;;;;;;17.60;90.50;;;;;;4043461;29;19934;-55
2023/10/05 06:47:36;;;;;;;;;;;17.60;90.90;;;;;;4036700;29;19938;-55
2023/10/05 06:50:18;;;;;;;;;;;17.60;90.50;;;;;;4043341;29;20006;-56
2023/10/05 06:53:00;;;;;;;;;;;17.70;90.50;;;;;;4043722;29;19935;-55
2023/10/05 06:55:41;;;;;;;;;;;17.60;90.50;;;;;;4041187;29;19942;-56
2023/10/05 06:58:22;;;;;;;;;;;17.70;90.50;;;;;;4045812;29;19942;-55
2023/10/05 07:01:03;;;;;;;;;;;17.60;90.40;;;;;;4050251;29;19947;-56
2023/10/05 07:03:44;;;;;;;;;;;17.70;90.50;;;;;;4038029;29;19938;-55
2023/10/05 07:06:29;;;;;;;;;;;17.70;90.50;;;;;;4046685;29;19934;-55
2023/10/05 07:09:12;;;;;;;;;;;17.70;90.90;;;;;;4059215;29;20385;-56
2023/10/05 07:11:53;;;;;;;;;;;17.70;90.50;;;;;;4045449;29;19938;-55
2023/10/05 07:14:33;;;;;;;;;;;17.70;90.50;;;;;;4056573;29;20063;-55
2023/10/05 07:17:15;;;;;;;;;;;17.70;90.50;;;;;;4016336;29;20366;-55
2023/10/05 07:19:56;;;;;;;;;;;17.70;90.50;;;;;;4043223;29;20009;-54
2023/10/05 07:22:36;;;;;;;;;;;17.70;90.50;;;;;;4042507;29;19939;-57
2023/10/05 07:25:18;;;;;;;;;;;17.70;90.60;;;;;;4027700;29;19935;-57
2023/10/05 07:27:59;;;;;;;;;;;17.70;90.60;;;;;;4043746;29;20027;-57
2023/10/05 07:30:40;;;;;;;;;;;17.70;90.70;;;;;;4043352;29;19934;-57
2023/10/05 07:33:21;;;;;;;;;;;17.70;90.90;;;;;;4043427;29;20068;-56
2023/10/05 07:36:02;;;;;;;;;;;17.70;90.90;;;;;;4031704;29;20084;-57
2023/10/05 07:38:44;;;;;;;;;;;17.70;90.90;;;;;;4043272;29;19986;-58
2023/10/05 07:41:28;;;;;;;;;;;17.70;90.90;;;;;;4031620;29;19934;-58
2023/10/05 07:44:09;;;;;;;;;;;17.70;91.00;;;;;;4039550;29;20027;-57
2023/10/05 07:46:51;;;;;;;;;;;17.70;90.90;;;;;;4043298;29;20075;-58
2023/10/05 07:49:34;;;;;;;;;;;17.70;91.00;;;;;;4043375;29;19934;-57
2023/10/05 07:52:16;;;;;;;;;;;17.70;91.00;;;;;;4043334;29;19983;-57
2023/10/05 07:54:57;;;;;;;;;;;17.70;91.00;;;;;;4031905;29;20290;-57
2023/10/05 07:57:39;;;;;;;;;;;17.70;91.00;;;;;;4043394;29;19937;-57
2023/10/05 08:00:21;;;;;;;;;;;17.70;91.00;;;;;;4031381;29;19938;-57
2023/10/05 08:03:03;;;;;;;;;;;17.70;91.40;;;;;;4043495;29;20074;-57
2023/10/05 08:05:44;;;;;;;;;;;17.80;91.10;;;;;;4042073;29;20394;-57
2023/10/05 08:08:24;;;;;;;;;;;17.70;91.20;;;;;;4043045;29;20390;-57
2023/10/05 08:11:06;;;;;;;;;;;17.70;91.20;;;;;;4018145;29;19983;-58
2023/10/05 08:13:49;;;;;;;;;;;17.80;91.20;;;;;;4040710;29;19975;-52
2023/10/05 08:16:34;;;;;;;;;;;17.80;91.30;;;;;;4022012;29;19935;-53
2023/10/05 08:19:16;;;;;;;;;;;17.80;91.40;;;;;;4018079;29;19988;-52
2023/10/05 08:21:57;;;;;;;;;;;17.80;91.50;;;;;;4036578;29;19959;-52
2023/10/05 08:24:38;;;;;;;;;;;17.80;91.70;;;;;;4042619;29;19973;-51
2023/10/05 08:27:19;;;;;;;;;;;17.90;91.70;;;;;;4042355;29;20034;-49
2023/10/05 08:30:03;;;;;;;;;;;17.90;91.70;;;;;;4042940;29;19938;-53
2023/10/05 08:32:47;;;;;;;;;;;18.00;91.70;;;;;;4042187;29;19934;-52
2023/10/05 08:35:40;;;;;;;;;;;18.00;91.70;;;;;;4042060;29;19939;-51
2023/10/05 08:38:24;;;;;;;;;;;18.00;91.70;;;;;;4026204;29;19935;-50
2023/10/05 08:41:07;;;;;;;;;;;18.10;92.20;;;;;;4029252;29;19974;-50
2023/10/05 08:43:50;;;;;;;;;;;18.10;91.80;;;;;;4034984;29;20018;-50
2023/10/05 08:46:33;;;;;;;;;;;18.20;91.80;;;;;;4038367;29;19935;-49
2023/10/05 08:49:15;;;;;;;;;;;18.20;91.80;;;;;;4028476;29;19939;-54
2023/10/05 08:51:58;;;;;;;;;;;18.30;91.80;;;;;;4041310;29;20042;-54
2023/10/05 08:54:45;;;;;;;;;;;18.30;91.90;;;;;;4041833;29;19982;-55
2023/10/05 08:57:26;;;;;;;;;;;18.40;91.80;;;;;;4034807;29;19939;-55
2023/10/05 09:00:09;;;;;;;;;;;18.30;91.80;;;;;;4045063;29;19946;-54
2023/10/05 09:02:51;;;;;;;;;;;18.30;91.80;;;;;;4043066;29;19938;-55
2023/10/05 09:05:33;;;;;;;;;;;18.30;91.90;;;;;;4045288;29;20012;-53
2023/10/05 09:08:14;;;;;;;;;;;18.30;91.90;;;;;;4045172;29;20059;-54
2023/10/05 09:10:59;;;;;;;;;;;18.30;91.90;;;;;;4045075;29;19938;-55
2023/10/05 09:13:44;;;;;;;;;;;18.30;92.00;;;;;;4045076;29;19937;-56
2023/10/05 09:16:30;;;;;;;;;;;18.30;92.00;;;;;;4045033;29;19938;-56
2023/10/05 09:19:15;;;;;;;;;;;18.20;92.00;;;;;;4045275;29;19994;-55
2023/10/05 09:22:10;;;;;;;;;;;18.20;92.00;;;;;;4045255;29;19991;-55
2023/10/05 09:24:53;;;;;;;;;;;18.20;92.10;;;;;;4042511;29;19938;-55
2023/10/05 09:27:47;;;;;;;;;;;18.20;92.10;;;;;;4045503;29;20072;-56
2023/10/05 09:30:30;;;;;;;;;;;18.20;92.60;;;;;;4039383;29;20378;-55
2023/10/05 09:33:18;;;;;;;;;;;18.20;92.60;;;;;;4038336;29;19935;-56
2023/10/05 09:36:16;;;;;;;;;;;18.20;92.30;;;;;;4021226;29;19939;-57
2023/10/05 09:39:06;;;;;;;;;;;18.20;92.30;;;;;;4035532;29;20462;-57
2023/10/05 09:41:50;;;;;;;;;;;18.20;92.40;;;;;;4044908;29;19939;-56
2023/10/05 09:44:32;;;;;;;;;;;18.10;92.40;;;;;;4044859;29;19948;-54
2023/10/05 09:47:14;;;;;;;;;;;18.20;92.50;;;;;;4045292;29;20375;-55
2023/10/05 09:49:56;;;;;;;;;;;18.10;92.50;;;;;;4044425;29;19934;-56
2023/10/05 09:52:38;;;;;;;;;;;18.20;92.50;;;;;;4041569;29;19959;-55
2023/10/05 09:55:19;;;;;;;;;;;18.10;92.50;;;;;;4044494;29;19954;-56
2023/10/05 09:58:05;;;;;;;;;;;18.10;92.50;;;;;;4044511;29;19943;-56
2023/10/05 10:00:49;;;;;;;;;;;18.20;92.60;;;;;;4031711;29;20470;-53
2023/10/05 10:03:31;;;;;;;;;;;18.10;92.60;;;;;;4032269;29;19934;-59
2023/10/05 10:06:13;;;;;;;;;;;18.20;93.10;;;;;;4044476;29;19935;-58
2023/10/05 10:09:07;;;;;;;;;;;18.20;92.80;;;;;;4044663;29;19974;-55
2023/10/05 10:11:50;;;;;;;;;;;18.20;92.80;;;;;;4042229;29;19934;-52
2023/10/05 10:14:32;;;;;;;;;;;18.30;92.80;;;;;;4044346;29;19939;-53
2023/10/05 10:17:27;;;;;;;;;;;18.30;92.80;;;;;;4044595;29;19942;-55
2023/10/05 10:20:34;;;;;;;;;;;18.30;92.80;;;;;;4044208;29;20291;-51
2023/10/05 10:23:19;;;;;;;;;;;18.30;92.80;;;;;;4027946;29;19983;-51
2023/10/05 10:26:16;;;;;;;;;;;18.30;92.80;;;;;;4029273;29;20393;-52
2023/10/05 10:28:59;;;;;;;;;;;18.30;92.80;;;;;;4033297;29;20607;-50
2023/10/05 10:31:47;;;;;;;;;;;18.40;92.80;;;;;;4037755;29;19935;-52
2023/10/05 10:34:42;;;;;;;;;;;18.30;92.80;;;;;;4043539;29;19939;-54
2023/10/05 10:37:36;;;;;;;;;;;18.30;92.80;;;;;;4027732;29;19974;-52
2023/10/05 10:40:27;;;;;;;;;;;18.40;92.80;;;;;;4043917;29;19939;-50
2023/10/05 10:43:12;;;;;;;;;;;18.40;92.80;;;;;;4043293;29;20393;-54
2023/10/05 10:45:53;;;;;;;;;;;18.40;93.20;;;;;;4043416;29;19943;-52
2023/10/05 10:48:36;;;;;;;;;;;18.40;92.80;;;;;;4043882;29;19938;-52
2023/10/05 10:51:17;;;;;;;;;;;18.50;92.90;;;;;;4043476;29;20073;-53
2023/10/05 10:53:59;;;;;;;;;;;18.50;92.90;;;;;;4043034;29;20298;-54
2023/10/05 10:56:42;;;;;;;;;;;18.50;92.90;;;;;;4044060;29;20342;-53
2023/10/05 10:59:30;;;;;;;;;;;18.50;92.90;;;;;;4006268;29;20291;-53
2023/10/05 11:02:11;;;;;;;;;;;18.60;92.90;;;;;;4043325;29;20378;-56
2023/10/05 11:04:52;;;;;;;;;;;18.60;92.80;;;;;;4044149;29;19939;-55
2023/10/05 11:07:43;;;;;;;;;;;18.60;92.80;;;;;;4044220;29;19935;-55
2023/10/05 11:10:30;;;;;;;;;;;18.60;92.80;;;;;;4044118;29;19999;-56
2023/10/05 11:13:18;;;;;;;;;;;18.60;92.80;;;;;;4032592;29;19939;-55
2023/10/05 11:16:01;;;;;;;;;;;18.70;92.70;;;;;;4042828;29;20362;-54
2023/10/05 11:18:57;;;;;;;;;;;18.70;92.70;;;;;;4043583;29;19937;-54
2023/10/05 11:21:45;;;;;;;;;;;18.70;92.70;;;;;;4042955;29;20393;-54
2023/10/05 11:24:26;;;;;;;;;;;18.60;92.70;;;;;;4043420;29;19938;-54
2023/10/05 11:27:15;;;;;;;;;;;18.60;92.70;;;;;;4043017;29;20402;-53
2023/10/05 11:29:59;;;;;;;;;;;18.60;92.80;;;;;;4043763;29;20481;-55
2023/10/05 11:32:43;;;;;;;;;;;18.60;92.90;;;;;;4050906;29;20417;-55
2023/10/05 11:35:42;;;;;;;;;;;18.60;92.90;;;;;;4043924;29;19934;-54
2023/10/05 11:38:26;;;;;;;;;;;18.60;92.80;;;;;;4027366;29;19934;-56
2023/10/05 11:41:09;;;;;;;;;;;18.60;92.80;;;;;;4028570;29;19935;-54
2023/10/05 11:43:53;;;;;;;;;;;18.60;92.80;;;;;;4028134;29;20078;-53
2023/10/05 11:46:43;;;;;;;;;;;18.60;92.80;;;;;;4029793;29;19973;-54
2023/10/05 11:49:30;;;;;;;;;;;18.60;92.80;;;;;;4042647;29;19978;-53
2023/10/05 11:52:12;;;;;;;;;;;18.60;92.80;;;;;;4039972;29;20060;-53
2023/10/05 11:54:53;;;;;;;;;;;18.70;92.80;;;;;;4028018;29;20344;-51
2023/10/05 11:57:35;;;;;;;;;;;18.70;92.80;;;;;;4028648;29;24369;-53
2023/10/05 12:00:17;;;;;;;;;;;18.70;92.70;;;;;;4043734;29;20402;-54
2023/10/05 12:02:57;;;;;;;;;;;18.70;92.70;;;;;;4043079;29;19935;-53
2023/10/05 12:05:40;;;;;;;;;;;18.70;92.70;;;;;;4043397;29;19983;-55
2023/10/05 12:08:23;;;;;;;;;;;18.70;92.70;;;;;;4042796;29;19938;-52
2023/10/05 12:11:03;;;;;;;;;;;18.70;92.60;;;;;;4043009;29;19993;-54
2023/10/05 12:13:44;;;;;;;;;;;18.70;92.60;;;;;;4043000;29;19938;-54
2023/10/05 12:16:26;;;;;;;;;;;18.70;92.60;;;;;;4031324;29;19941;-52
2023/10/05 12:19:14;;;;;;;;;;;18.70;92.50;;;;;;4030363;29;19938;-55
2023/10/05 12:21:57;;;;;;;;;;;18.70;92.50;;;;;;4031685;29;19939;-54
2023/10/05 12:24:37;;;;;;;;;;;18.70;92.50;;;;;;4042412;29;19934;-53
2023/10/05 12:27:20;;;;;;;;;;;18.70;92.90;;;;;;4035728;29;19935;-53
2023/10/05 12:30:10;;;;;;;;;;;18.70;92.50;;;;;;4027374;29;20363;-53
2023/10/05 12:32:51;;;;;;;;;;;18.70;92.50;;;;;;4028613;29;20474;-51
2023/10/05 12:35:32;;;;;;;;;;;18.70;92.50;;;;;;4035229;29;19938;-54
2023/10/05 12:38:14;;;;;;;;;;;18.70;92.50;;;;;;4049716;29;20330;-51
2023/10/05 12:40:54;;;;;;;;;;;18.70;92.50;;;;;;4015797;29;19950;-53
2023/10/05 12:43:35;;;;;;;;;;;18.70;92.50;;;;;;4031911;29;19934;-52
2023/10/05 12:46:16;;;;;;;;;;;18.70;92.50;;;;;;4042657;29;19987;-55
2023/10/05 12:48:57;;;;;;;;;;;18.70;92.50;;;;;;4043023;29;19934;-55
2023/10/05 12:51:38;;;;;;;;;;;18.70;92.50;;;;;;4042687;29;19950;-53
2023/10/05 12:54:28;;;;;;;;;;;18.80;92.50;;;;;;4042426;29;19939;-53
2023/10/05 12:57:10;;;;;;;;;;;18.80;92.80;;;;;;4040435;29;19938;-54
2023/10/05 12:59:57;;;;;;;;;;;18.80;92.40;;;;;;4028613;29;19935;-52
2023/10/05 13:02:37;;;;;;;;;;;18.80;92.40;;;;;;4039988;29;19938;-54
2023/10/05 13:05:20;;;;;;;;;;;18.80;92.40;;;;;;4041882;29;19935;-54
2023/10/05 13:08:10;;;;;;;;;;;18.80;92.40;;;;;;4029481;29;19943;-54
2023/10/05 13:10:55;;;;;;;;;;;18.80;92.80;;;;;;4041864;29;19942;-52
2023/10/05 13:13:38;;;;;;;;;;;18.70;92.40;;;;;;4042397;29;20295;-55
2023/10/05 13:16:21;;;;;;;;;;;18.70;92.80;;;;;;4042302;29;20042;-54
2023/10/05 13:19:03;;;;;;;;;;;18.70;92.40;;;;;;4039402;29;19955;-54
2023/10/05 13:21:44;;;;;;;;;;;18.70;92.40;;;;;;4026639;29;19939;-52
2023/10/05 13:24:26;;;;;;;;;;;18.70;92.50;;;;;;4012119;29;19935;-54
2023/10/05 13:27:08;;;;;;;;;;;18.70;92.50;;;;;;4011258;29;20071;-55
2023/10/05 13:29:49;;;;;;;;;;;18.70;92.50;;;;;;4014387;29;19935;-54
2023/10/05 13:32:31;;;;;;;;;;;18.70;92.50;;;;;;4026795;29;19963;-55
2023/10/05 13:35:12;;;;;;;;;;;18.70;92.50;;;;;;4022469;29;19970;-54
2023/10/05 13:37:53;;;;;;;;;;;18.70;92.50;;;;;;4025844;29;20366;-53
2023/10/05 13:40:35;;;;;;;;;;;18.70;92.60;;;;;;4029649;29;19934;-55
2023/10/05 13:43:17;;;;;;;;;;;18.70;92.60;;;;;;4033767;29;19934;-56
2023/10/05 13:46:07;;;;;;;;;;;18.70;92.60;;;;;;4040795;29;19935;-56
2023/10/05 13:48:49;;;;;;;;;;;18.70;92.60;;;;;;4051915;29;19935;-56
2023/10/05 13:51:33;;;;;;;;;;;18.70;92.70;;;;;;4048968;29;20406;-54
2023/10/05 13:54:16;;;;;;;;;;;18.70;92.70;;;;;;4060970;29;20295;-51
2023/10/05 13:56:57;;;;;;;;;;;18.70;92.80;;;;;;4061198;29;19938;-54
2023/10/05 13:59:39;;;;;;;;;;;18.70;92.80;;;;;;4060000;29;19934;-54
2023/10/05 14:02:21;;;;;;;;;;;18.80;92.90;;;;;;4047676;29;20022;-54
2023/10/05 14:05:02;;;;;;;;;;;18.80;93.00;;;;;;4044463;29;20343;-56
2023/10/05 14:07:44;;;;;;;;;;;18.80;93.00;;;;;;4044138;29;19934;-54
2023/10/05 14:10:25;;;;;;;;;;;18.80;93.00;;;;;;4043091;29;19968;-52
2023/10/05 14:13:09;;;;;;;;;;;18.90;93.10;;;;;;4037446;29;19938;-54
2023/10/05 14:15:52;;;;;;;;;;;18.90;93.10;;;;;;4043186;29;19958;-54
2023/10/05 14:18:34;;;;;;;;;;;18.90;93.40;;;;;;4038093;29;20047;-55
2023/10/05 14:21:16;;;;;;;;;;;18.90;93.00;;;;;;4038829;29;20438;-53
2023/10/05 14:23:58;;;;;;;;;;;18.90;93.00;;;;;;4040691;29;20142;-56
2023/10/05 14:26:44;;;;;;;;;;;18.90;93.00;;;;;;4032559;29;20007;-53
2023/10/05 14:29:34;;;;;;;;;;;18.90;92.90;;;;;;4044184;29;19953;-53
2023/10/05 14:32:19;;;;;;;;;;;18.90;92.90;;;;;;4038093;29;20351;-56
2023/10/05 14:35:04;;;;;;;;;;;18.90;93.00;;;;;;4029117;29;20286;-59
2023/10/05 14:37:45;;;;;;;;;;;19.00;93.10;;;;;;4030261;29;20330;-58
2023/10/05 14:40:30;;;;;;;;;;;19.00;93.10;;;;;;4044052;29;19935;-58
2023/10/05 14:43:20;;;;;;;;;;;19.00;93.10;;;;;;4028598;29;19942;-57
2023/10/05 14:46:02;;;;;;;;;;;19.00;93.50;;;;;;4042276;29;19935;-56
2023/10/05 14:48:45;;;;;;;;;;;19.00;93.10;;;;;;4044734;29;20066;-56
2023/10/05 14:51:27;;;;;;;;;;;19.00;93.10;;;;;;4044172;29;19938;-56
2023/10/05 14:54:09;;;;;;;;;;;19.00;93.10;;;;;;4044149;29;19935;-56
2023/10/05 14:56:50;;;;;;;;;;;19.00;93.50;;;;;;4053603;29;20066;-56
2023/10/05 14:59:31;;;;;;;;;;;19.00;93.20;;;;;;4028662;29;19939;-56
2023/10/05 15:02:12;;;;;;;;;;;19.00;93.20;;;;;;4040818;29;19935;-56
2023/10/05 15:04:55;;;;;;;;;;;19.10;93.60;;;;;;4029021;29;19939;-56
2023/10/05 15:07:36;;;;;;;;;;;19.10;93.30;;;;;;4016059;29;19934;-58
2023/10/05 15:10:17;;;;;;;;;;;19.10;93.30;;;;;;4028589;29;19935;-54
2023/10/05 15:12:59;;;;;;;;;;;19.00;93.30;;;;;;4028007;29;19934;-55
2023/10/05 15:15:40;;;;;;;;;;;19.00;93.30;;;;;;4010425;29;19988;-58
2023/10/05 15:18:21;;;;;;;;;;;19.10;93.30;;;;;;4028179;29;20304;-54
2023/10/05 15:21:03;;;;;;;;;;;19.00;93.70;;;;;;4022085;29;19948;-53
2023/10/05 15:23:44;;;;;;;;;;;19.00;93.30;;;;;;4021593;29;19975;-53
2023/10/05 15:26:25;;;;;;;;;;;19.10;93.20;;;;;;4027122;29;20413;-54
2023/10/05 15:29:08;;;;;;;;;;;19.00;93.20;;;;;;4018960;29;20351;-56
2023/10/05 15:31:49;;;;;;;;;;;19.00;93.20;;;;;;4026110;29;19939;-55
2023/10/05 15:34:30;;;;;;;;;;;19.00;93.20;;;;;;4023888;29;19950;-55
2023/10/05 15:37:14;;;;;;;;;;;19.00;93.60;;;;;;4020168;29;19962;-56
2023/10/05 15:39:55;;;;;;;;;;;19.00;93.30;;;;;;4019234;29;19983;-53
2023/10/05 15:42:36;;;;;;;;;;;19.00;93.30;;;;;;4025370;29;19935;-53
2023/10/05 15:45:20;;;;;;;;;;;19.00;93.30;;;;;;4022988;29;19934;-56
2023/10/05 15:48:08;;;;;;;;;;;19.00;93.30;;;;;;4020444;29;20064;-55
2023/10/05 15:50:49;;;;;;;;;;;19.00;93.30;;;;;;4019167;29;20072;-53